Time;durP1;ratioP1;P1;durP2;ratioP2;P2;SDS_P1;SDS_P2;PMS_P1;PMS_P2;Temp;Humidity;BMP_temperature;BMP_pressure;BME280_temperature;BME280_humidity;BME280_pressure;Samples;Min_cycle;Max_cycle;Signal;HPM_P1;HPM_P2
2024/05/07 00:01:45;;;;;;;1.15;1.15;;;;;;;13.63;49.22;98203.91;5397961;26;19999;-43
2024/05/07 00:04:18;;;;;;;1.20;1.20;;;;;;;13.60;48.93;98202.50;5396014;26;20019;-43
2024/05/07 00:06:48;;;;;;;0.93;0.90;;;;;;;13.56;48.89;98200.59;5398179;26;20575;-43
2024/05/07 00:09:17;;;;;;;0.93;0.93;;;;;;;13.40;49.54;98189.91;5397625;26;20267;-43
2024/05/07 00:11:47;;;;;;;1.63;1.38;;;;;;;13.45;49.32;98202.41;5379477;26;20003;-43
2024/05/07 00:14:16;;;;;;;1.65;1.58;;;;;;;13.34;49.57;98196.22;5408364;26;20085;-43
2024/05/07 00:16:49;;;;;;;1.10;1.10;;;;;;;13.25;49.37;98195.88;5398721;26;20415;-43
2024/05/07 00:19:18;;;;;;;1.42;1.42;;;;;;;13.31;49.47;98194.06;5397732;26;20613;-43
2024/05/07 00:21:48;;;;;;;0.88;0.88;;;;;;;13.25;49.11;98193.22;5398382;26;20839;-43
2024/05/07 00:24:17;;;;;;;1.42;1.33;;;;;;;13.26;49.25;98196.69;5393623;26;20013;-43
2024/05/07 00:26:47;;;;;;;1.02;1.02;;;;;;;13.35;49.30;98203.13;5394474;26;20018;-42
2024/05/07 00:29:16;;;;;;;1.52;1.10;;;;;;;13.32;48.78;98194.88;5397183;26;20000;-43
2024/05/07 00:31:49;;;;;;;1.80;1.33;;;;;;;13.27;49.02;98207.03;5397129;26;20022;-43
2024/05/07 00:34:18;;;;;;;1.40;1.25;;;;;;;13.33;48.66;98199.13;5383591;26;19995;-43
2024/05/07 00:36:48;;;;;;;0.80;0.80;;;;;;;13.36;48.62;98198.63;5399298;26;20122;-43
2024/05/07 00:39:17;;;;;;;1.13;1.00;;;;;;;13.41;48.53;98193.34;5399536;26;20004;-43
2024/05/07 00:41:47;;;;;;;0.95;0.95;;;;;;;13.23;48.85;98199.84;5324460;26;20091;-42
2024/05/07 00:44:16;;;;;;;1.40;1.40;;;;;;;13.20;48.72;98200.34;5325169;26;20475;-43
2024/05/07 00:46:49;;;;;;;1.38;1.38;;;;;;;13.20;48.71;98201.16;5304891;26;21215;-43
2024/05/07 00:49:18;;;;;;;1.13;0.90;;;;;;;13.26;48.52;98197.50;5307281;26;20759;-43
2024/05/07 00:51:48;;;;;;;1.75;1.50;;;;;;;13.29;48.24;98193.53;5297017;26;20013;-42
2024/05/07 00:54:22;;;;;;;1.00;1.00;;;;;;;13.31;48.01;98196.72;5316184;26;20579;-43
2024/05/07 00:56:53;;;;;;;1.48;1.48;;;;;;;13.32;48.44;98198.31;5324733;26;20269;-43
2024/05/07 00:59:23;;;;;;;1.40;1.40;;;;;;;13.28;48.20;98186.63;5333378;26;20001;-43
2024/05/07 01:01:56;;;;;;;1.40;1.40;;;;;;;13.29;47.97;98192.72;5398196;26;19999;-43
2024/05/07 01:04:26;;;;;;;0.85;0.85;;;;;;;13.29;48.10;98187.44;5399031;26;20821;-43
2024/05/07 01:06:55;;;;;;;0.80;0.80;;;;;;;13.26;47.65;98188.75;5398266;26;21622;-43
2024/05/07 01:09:25;;;;;;;1.20;1.20;;;;;;;13.27;47.60;98193.78;5396635;26;20348;-43
2024/05/07 01:11:54;;;;;;;2.05;0.98;;;;;;;13.19;47.53;98196.09;5399782;26;20112;-43
2024/05/07 01:14:24;;;;;;;0.95;0.95;;;;;;;13.14;48.13;98191.56;5416288;26;20050;-43
2024/05/07 01:16:56;;;;;;;1.00;1.00;;;;;;;13.12;47.72;98192.84;5401282;26;19999;-43
2024/05/07 01:19:26;;;;;;;0.90;0.77;;;;;;;13.14;47.69;98193.41;5391705;26;20358;-43
2024/05/07 01:22:00;;;;;;;1.27;0.93;;;;;;;13.08;47.78;98193.38;5390517;26;20015;-43
2024/05/07 01:24:33;;;;;;;1.45;1.45;;;;;;;12.97;47.95;98194.31;5380763;26;20639;-43
2024/05/07 01:27:05;;;;;;;0.90;0.90;;;;;;;12.95;48.21;98191.13;5400388;26;21131;-43
2024/05/07 01:29:34;;;;;;;1.40;1.40;;;;;;;12.90;48.21;98196.38;5384971;26;20632;-42
2024/05/07 01:32:04;;;;;;;1.38;1.27;;;;;;;12.80;48.22;98185.66;5402923;26;20003;-42
2024/05/07 01:34:33;;;;;;;1.00;0.98;;;;;;;12.76;47.88;98188.03;5402521;26;20000;-43
2024/05/07 01:37:03;;;;;;;1.55;1.45;;;;;;;12.63;48.01;98199.78;5403188;26;22916;-43
2024/05/07 01:39:35;;;;;;;1.42;1.40;;;;;;;12.56;48.47;98193.09;5400425;26;21100;-43
2024/05/07 01:42:05;;;;;;;1.52;1.42;;;;;;;12.44;48.20;98195.88;5401850;26;20000;-43
2024/05/07 01:44:35;;;;;;;1.20;1.10;;;;;;;12.32;48.80;98196.00;5400151;26;20405;-43
2024/05/07 01:47:05;;;;;;;1.55;1.45;;;;;;;12.36;48.81;98193.66;5380571;26;20008;-43
2024/05/07 01:49:34;;;;;;;1.27;1.10;;;;;;;12.27;48.18;98202.06;5379592;26;21825;-43
2024/05/07 01:52:04;;;;;;;1.58;1.17;;;;;;;12.13;48.66;98201.63;5378867;26;20512;-43
2024/05/07 01:54:36;;;;;;;2.65;1.00;;;;;;;12.09;48.27;98203.13;5389878;26;21009;-43
2024/05/07 01:57:06;;;;;;;2.50;1.20;;;;;;;11.91;49.17;98198.94;5399281;26;20858;-43
2024/05/07 01:59:36;;;;;;;1.52;1.42;;;;;;;11.87;48.84;98199.69;5402219;26;20652;-43
2024/05/07 02:02:05;;;;;;;1.67;1.17;;;;;;;11.91;48.94;98206.09;5400093;26;20003;-43
2024/05/07 02:04:35;;;;;;;1.58;1.48;;;;;;;11.84;48.77;98202.81;5384294;26;20835;-43
2024/05/07 02:07:05;;;;;;;2.20;1.08;;;;;;;11.66;49.32;98214.44;5401084;26;21003;-43
2024/05/07 02:09:39;;;;;;;4.60;1.48;;;;;;;11.55;49.47;98210.84;5401569;26;20004;-43
2024/05/07 02:12:09;;;;;;;1.45;1.38;;;;;;;11.52;49.66;98206.81;5398952;26;20793;-43
2024/05/07 02:14:38;;;;;;;1.30;1.30;;;;;;;11.60;49.36;98210.94;5395236;26;20067;-43
2024/05/07 02:17:08;;;;;;;1.00;1.00;;;;;;;11.55;49.58;98210.84;5401627;26;20575;-43
2024/05/07 02:19:37;;;;;;;1.48;1.42;;;;;;;11.46;49.49;98220.22;5401825;26;22160;-42
2024/05/07 02:22:07;;;;;;;1.35;1.35;;;;;;;11.43;49.65;98210.13;5398584;26;19999;-42
2024/05/07 02:24:39;;;;;;;1.58;1.35;;;;;;;11.36;49.84;98218.22;5400736;26;19999;-43
2024/05/07 02:27:09;;;;;;;2.10;1.33;;;;;;;11.21;50.37;98216.09;5401855;26;20049;-43
2024/05/07 02:29:38;;;;;;;1.40;0.88;;;;;;;11.19;49.99;98220.84;5385126;26;20019;-43
2024/05/07 02:32:08;;;;;;;1.20;1.02;;;;;;;11.23;49.81;98207.94;5392326;26;20003;-43
2024/05/07 02:34:38;;;;;;;2.05;1.50;;;;;;;11.14;49.92;98211.00;5401622;26;19999;-43
2024/05/07 02:37:07;;;;;;;1.45;1.45;;;;;;;11.17;49.85;98215.00;5397250;26;20015;-43
2024/05/07 02:39:40;;;;;;;0.98;0.98;;;;;;;11.25;49.61;98217.25;5396897;26;20000;-43
2024/05/07 02:42:07;;;;;;;4.00;1.20;;;;;;;11.27;49.65;98217.03;5400853;26;20003;-43
2024/05/07 02:44:36;;;;;;;0.88;0.88;;;;;;;11.26;49.66;98213.56;5400605;26;20010;-42
2024/05/07 02:47:06;;;;;;;2.25;1.15;;;;;;;11.35;49.31;98221.88;5374955;26;20442;-42
2024/05/07 02:49:36;;;;;;;1.25;1.25;;;;;;;11.46;49.19;98210.44;5396094;26;20019;-43
2024/05/07 02:52:06;;;;;;;1.08;0.80;;;;;;;11.54;48.77;98210.03;5376588;26;20004;-43
2024/05/07 02:54:36;;;;;;;1.25;1.08;;;;;;;11.63;48.44;98212.28;5396288;26;20060;-43
2024/05/07 02:57:09;;;;;;;0.95;0.88;;;;;;;11.68;48.33;98213.13;5401466;26;21229;-43
2024/05/07 02:59:38;;;;;;;2.80;1.10;;;;;;;11.75;48.48;98205.84;5398663;26;21480;-43
2024/05/07 03:02:08;;;;;;;1.45;1.00;;;;;;;11.78;47.99;98199.28;5399939;26;20461;-42
2024/05/07 03:04:41;;;;;;;1.42;1.33;;;;;;;11.80;47.60;98196.38;5379160;26;20428;-41
2024/05/07 03:07:11;;;;;;;1.85;1.23;;;;;;;11.75;48.11;98203.19;5389904;26;20003;-43
2024/05/07 03:09:50;;;;;;;1.85;0.90;;;;;;;11.74;47.77;98195.47;5398589;26;21410;-43
2024/05/07 03:12:23;;;;;;;1.73;1.63;;;;;;;11.75;47.66;98194.47;5400499;26;20026;-43
2024/05/07 03:14:52;;;;;;;1.92;1.83;;;;;;;11.77;47.56;98195.00;5399593;26;20129;-43
2024/05/07 03:17:22;;;;;;;1.70;1.60;;;;;;;11.76;47.84;98196.88;5399875;26;20004;-43
2024/05/07 03:19:51;;;;;;;1.27;1.17;;;;;;;11.66;47.85;98194.06;5398638;26;20357;-42
2024/05/07 03:22:21;;;;;;;2.35;1.40;;;;;;;11.56;47.89;98200.03;5400864;26;20541;-43
2024/05/07 03:24:53;;;;;;;2.33;1.98;;;;;;;11.61;47.82;98190.56;5396212;26;20000;-43
2024/05/07 03:27:25;;;;;;;1.60;1.50;;;;;;;11.54;47.47;98201.28;5400840;26;20019;-43
2024/05/07 03:29:55;;;;;;;4.35;1.73;;;;;;;11.44;47.67;98196.66;5397385;26;20004;-43
2024/05/07 03:32:25;;;;;;;2.95;1.10;;;;;;;11.41;47.67;98201.63;5398489;26;20443;-42
2024/05/07 03:34:54;;;;;;;4.32;1.42;;;;;;;11.24;47.49;98201.63;5408510;26;20076;-43
2024/05/07 03:37:24;;;;;;;1.70;1.52;;;;;;;11.06;47.97;98207.94;5413253;26;20441;-43
2024/05/07 03:39:53;;;;;;;1.48;1.45;;;;;;;10.87;48.19;98202.06;5400998;26;20022;-43
2024/05/07 03:42:25;;;;;;;1.20;1.10;;;;;;;10.78;48.52;98209.53;5399309;26;20826;-43
2024/05/07 03:44:55;;;;;;;1.42;1.33;;;;;;;10.68;48.62;98209.34;5393587;26;21535;-42
2024/05/07 03:47:25;;;;;;;0.90;0.90;;;;;;;10.74;48.73;98211.84;5400058;26;20133;-42
2024/05/07 03:49:54;;;;;;;1.02;1.02;;;;;;;10.79;48.58;98213.78;5401639;26;20031;-43
2024/05/07 03:52:24;;;;;;;3.25;1.55;;;;;;;10.78;48.59;98209.53;5399069;26;20018;-43
2024/05/07 03:54:53;;;;;;;0.90;0.90;;;;;;;10.86;48.35;98211.00;5400395;26;21620;-43
2024/05/07 03:57:25;;;;;;;1.88;1.25;;;;;;;10.93;48.31;98212.50;5399155;26;21903;-43
2024/05/07 03:59:55;;;;;;;1.27;1.17;;;;;;;10.94;47.99;98216.72;5399316;26;20072;-43
2024/05/07 04:02:24;;;;;;;2.58;1.23;;;;;;;11.01;47.91;98216.56;5399914;26;20022;-43
2024/05/07 04:04:54;;;;;;;2.00;1.80;;;;;;;11.11;47.82;98218.59;5398977;26;20419;-42
2024/05/07 04:07:24;;;;;;;1.00;1.00;;;;;;;11.15;47.52;98220.50;5398204;26;20882;-43
2024/05/07 04:09:53;;;;;;;1.40;1.40;;;;;;;11.21;47.55;98225.91;5399132;26;19995;-43
2024/05/07 04:12:25;;;;;;;2.85;1.27;;;;;;;11.27;47.46;98230.25;5400878;26;20010;-43
2024/05/07 04:14:55;;;;;;;1.60;1.48;;;;;;;11.33;47.02;98235.34;5409342;26;20073;-43
2024/05/07 04:17:24;;;;;;;1.13;1.13;;;;;;;11.32;47.05;98233.75;5372090;26;20150;-42
2024/05/07 04:19:54;;;;;;;1.83;1.25;;;;;;;11.30;47.35;98230.56;5398329;26;20011;-43
2024/05/07 04:22:24;;;;;;;2.72;1.38;;;;;;;11.33;47.18;98230.06;5398466;26;20011;-43
2024/05/07 04:24:53;;;;;;;1.25;1.10;;;;;;;11.32;47.19;98230.31;5399678;26;20015;-43
2024/05/07 04:27:25;;;;;;;1.13;1.08;;;;;;;11.30;47.03;98240.31;5399546;26;20432;-43
2024/05/07 04:29:55;;;;;;;1.60;1.50;;;;;;;11.32;47.13;98238.25;5398654;26;20003;-42
2024/05/07 04:32:25;;;;;;;1.10;1.10;;;;;;;11.30;47.44;98237.69;5399116;26;20004;-43
2024/05/07 04:34:54;;;;;;;1.52;1.33;;;;;;;11.32;46.93;98240.91;5399279;26;20072;-43
2024/05/07 04:37:25;;;;;;;2.53;1.33;;;;;;;11.13;47.42;98241.09;5400738;26;20003;-42
2024/05/07 04:39:54;;;;;;;1.80;1.70;;;;;;;11.10;47.55;98241.56;5399990;26;20003;-42
2024/05/07 04:42:26;;;;;;;2.05;1.70;;;;;;;11.24;47.52;98236.78;5396761;26;20017;-42
2024/05/07 04:44:56;;;;;;;1.20;1.10;;;;;;;11.32;47.39;98246.19;5383775;26;20014;-43
2024/05/07 04:47:25;;;;;;;1.73;1.73;;;;;;;11.42;47.46;98242.91;5403071;26;19996;-43
2024/05/07 04:49:55;;;;;;;2.40;1.25;;;;;;;11.49;47.27;98248.81;5407665;26;20019;-42
2024/05/07 04:52:24;;;;;;;1.55;1.45;;;;;;;11.56;47.44;98249.47;5394309;26;20812;-42
2024/05/07 04:54:57;;;;;;;2.22;1.38;;;;;;;11.61;47.34;98246.91;5406222;26;20046;-43
2024/05/07 04:57:29;;;;;;;1.40;1.27;;;;;;;11.68;47.15;98249.41;5383828;26;21854;-43
2024/05/07 04:59:59;;;;;;;2.00;1.75;;;;;;;11.75;47.37;98256.13;5375112;26;20016;-43
2024/05/07 05:02:28;;;;;;;1.60;1.30;;;;;;;11.84;47.28;98250.44;5389513;26;20442;-43
2024/05/07 05:04:58;;;;;;;1.30;1.20;;;;;;;11.92;47.13;98258.00;5406964;26;20073;-43
2024/05/07 05:07:27;;;;;;;3.50;1.90;;;;;;;11.96;47.48;98264.41;5407402;26;20026;-42
2024/05/07 05:09:57;;;;;;;2.35;2.20;;;;;;;12.04;47.41;98261.34;5404505;26;20349;-43
2024/05/07 05:12:31;;;;;;;2.10;1.58;;;;;;;12.13;47.52;98261.72;5407439;26;20011;-43
2024/05/07 05:15:01;;;;;;;2.47;2.25;;;;;;;12.22;46.74;98254.13;5423273;26;20354;-42
2024/05/07 05:17:31;;;;;;;2.15;1.60;;;;;;;12.33;46.91;98267.28;5383703;26;20004;-43
2024/05/07 05:20:01;;;;;;;1.70;1.60;;;;;;;12.46;46.75;98263.44;5386516;26;20007;-43
2024/05/07 05:22:30;;;;;;;1.90;1.70;;;;;;;12.57;46.63;98260.94;5404074;26;20024;-43
2024/05/07 05:25:00;;;;;;;2.42;2.22;;;;;;;12.63;46.44;98265.25;5405425;26;20015;-43
2024/05/07 05:27:32;;;;;;;2.97;2.72;;;;;;;12.68;46.93;98265.31;5402960;26;20071;-43
2024/05/07 05:30:02;;;;;;;2.17;2.08;;;;;;;12.78;46.66;98268.09;5404478;26;20014;-42
2024/05/07 05:32:32;;;;;;;3.17;2.80;;;;;;;12.87;46.75;98261.31;5402835;26;20019;-43
2024/05/07 05:35:01;;;;;;;4.63;2.03;;;;;;;13.01;46.50;98275.00;5403219;26;20073;-42
2024/05/07 05:37:31;;;;;;;2.80;2.60;;;;;;;13.15;45.96;98271.91;5402764;26;20032;-43
2024/05/07 05:40:01;;;;;;;2.70;2.50;;;;;;;13.25;46.15;98272.03;5405387;26;20898;-43
2024/05/07 05:42:33;;;;;;;3.13;2.83;;;;;;;13.36;46.23;98272.91;5402474;26;20349;-43
2024/05/07 05:45:02;;;;;;;5.13;4.30;;;;;;;13.45;45.89;98282.00;5387447;26;22033;-42
2024/05/07 05:47:32;;;;;;;3.97;3.58;;;;;;;13.52;45.67;98279.16;5381070;26;20356;-44
2024/05/07 05:50:01;;;;;;;3.85;3.55;;;;;;;13.59;45.76;98280.53;5298470;26;22220;-43
2024/05/07 05:52:31;;;;;;;3.33;2.92;;;;;;;13.74;45.23;98285.19;5297461;26;20220;-42
2024/05/07 05:55:00;;;;;;;4.00;2.45;;;;;;;13.80;45.12;98276.19;5297968;26;20814;-43
2024/05/07 05:57:32;;;;;;;3.25;2.65;;;;;;;13.91;44.61;98279.75;5295814;26;21085;-44
2024/05/07 06:00:02;;;;;;;2.03;1.80;;;;;;;14.01;44.48;98281.66;5293332;26;22247;-43
2024/05/07 06:02:32;;;;;;;2.38;2.05;;;;;;;14.04;44.05;98283.03;5295024;26;20317;-43
2024/05/07 06:05:01;;;;;;;1.77;1.48;;;;;;;14.08;43.60;98279.56;5292602;26;22052;-43
2024/05/07 06:07:31;;;;;;;1.40;1.10;;;;;;;14.20;43.19;98292.66;5181969;27;22414;-43
2024/05/07 06:10:01;;;;;;;1.95;1.85;;;;;;;14.27;42.61;98295.88;5228325;27;20338;-43
2024/05/07 06:12:33;;;;;;;1.63;1.52;;;;;;;14.38;42.71;98297.53;5227411;27;20007;-43
2024/05/07 06:15:03;;;;;;;1.52;1.42;;;;;;;14.54;42.70;98302.97;5227318;27;20010;-43
2024/05/07 06:17:35;;;;;;;1.50;1.40;;;;;;;14.66;42.90;98300.09;5257444;27;20944;-43
2024/05/07 06:20:04;;;;;;;1.88;1.35;;;;;;;14.63;42.33;98312.03;5243081;27;20006;-43
2024/05/07 06:22:37;;;;;;;2.03;1.40;;;;;;;14.34;42.00;98311.59;5259415;27;21844;-43
2024/05/07 06:25:07;;;;;;;2.53;1.23;;;;;;;14.40;42.20;98308.69;5290490;26;21138;-43
2024/05/07 06:27:39;;;;;;;1.38;1.27;;;;;;;14.51;42.21;98312.25;5401718;26;20717;-42
2024/05/07 06:30:09;;;;;;;1.52;1.20;;;;;;;14.58;42.43;98317.31;5403541;26;20085;-43
2024/05/07 06:32:40;;;;;;;;;;;;;;;14.53;42.58;98315.47;5403463;26;20839;-43
2024/05/07 06:35:09;;;;;;;1.50;1.40;;;;;;;14.61;42.17;98319.47;5403286;26;20335;-43
2024/05/07 06:37:39;;;;;;;1.48;1.38;;;;;;;14.63;41.97;98319.22;5401793;26;20303;-43
2024/05/07 06:40:09;;;;;;;1.25;1.15;;;;;;;14.58;41.69;98317.31;5402763;26;20007;-43
2024/05/07 06:42:41;;;;;;;1.35;1.20;;;;;;;14.59;41.74;98318.94;5401089;26;20597;-43
2024/05/07 06:45:11;;;;;;;1.60;1.50;;;;;;;14.59;41.81;98329.56;5403600;26;21714;-43
2024/05/07 06:47:41;;;;;;;1.40;1.20;;;;;;;14.58;41.31;98327.94;5381488;26;20341;-43
2024/05/07 06:50:11;;;;;;;2.35;1.25;;;;;;;14.44;41.39;98326.78;5401511;26;20010;-43
2024/05/07 06:52:43;;;;;;;1.17;1.08;;;;;;;14.42;41.67;98332.38;5401745;26;20080;-43
2024/05/07 06:55:12;;;;;;;2.30;2.10;;;;;;;14.37;41.22;98329.69;5402171;26;20072;-46
2024/05/07 06:57:44;;;;;;;2.22;1.48;;;;;;;14.37;41.54;98325.19;5400255;26;20520;-47
2024/05/07 07:00:15;;;;;;;1.70;1.38;;;;;;;14.40;41.31;98327.31;5380787;26;20180;-47
2024/05/07 07:02:45;;;;;;;1.20;1.10;;;;;;;14.30;41.14;98326.44;5388455;26;20338;-46
2024/05/07 07:05:15;;;;;;;2.28;1.55;;;;;;;14.41;41.33;98333.44;5401116;26;20418;-46
2024/05/07 07:07:45;;;;;;;1.45;1.35;;;;;;;14.48;41.47;98333.25;5401189;26;22003;-46
2024/05/07 07:10:15;;;;;;;1.33;1.23;;;;;;;14.68;41.20;98337.84;5394027;26;20395;-46
2024/05/07 07:12:50;;;;;;;2.25;1.10;;;;;;;14.76;40.48;98338.16;5387098;26;21718;-47
2024/05/07 07:15:20;;;;;;;1.65;1.55;;;;;;;14.91;40.81;98331.28;5396832;26;20004;-46
2024/05/07 07:17:50;;;;;;;1.95;1.10;;;;;;;15.05;40.60;98329.72;5402294;26;20005;-46
2024/05/07 07:20:19;;;;;;;1.10;1.10;;;;;;;15.18;40.30;98330.28;5401828;26;19999;-47
2024/05/07 07:22:53;;;;;;;1.77;1.23;;;;;;;15.22;40.37;98339.34;5375634;26;20004;-46
2024/05/07 07:25:22;;;;;;;2.08;1.55;;;;;;;15.11;39.41;98330.53;5390584;26;21270;-46
2024/05/07 07:27:55;;;;;;;1.95;1.20;;;;;;;15.11;40.39;98331.34;5401034;26;20007;-47
2024/05/07 07:30:24;;;;;;;1.90;1.38;;;;;;;15.17;40.08;98339.34;5401665;26;22092;-47
2024/05/07 07:32:54;;;;;;;2.47;1.30;;;;;;;15.09;40.55;98332.66;5393242;26;20026;-46
2024/05/07 07:35:23;;;;;;;1.40;1.35;;;;;;;14.99;40.13;98322.00;5402041;26;19999;-46
2024/05/07 07:37:53;;;;;;;4.65;1.70;;;;;;;15.02;38.97;98326.78;5398096;26;20457;-46
2024/05/07 07:40:23;;;;;;;2.30;1.80;;;;;;;14.98;39.56;98331.06;5402325;26;20396;-46
2024/05/07 07:42:55;;;;;;;2.63;1.63;;;;;;;15.01;39.72;98322.56;5399552;26;20007;-46
2024/05/07 07:45:25;;;;;;;2.45;1.35;;;;;;;15.30;40.16;98321.03;5402159;26;20014;-46
2024/05/07 07:47:54;;;;;;;1.95;1.80;;;;;;;15.58;39.75;98321.59;5381440;26;20011;-47
2024/05/07 07:50:24;;;;;;;1.42;1.33;;;;;;;15.68;39.09;98326.94;5401352;26;20012;-46
2024/05/07 07:52:54;;;;;;;1.20;1.20;;;;;;;15.98;39.48;98320.00;5369391;26;20000;-46
2024/05/07 07:55:23;;;;;;;1.42;1.33;;;;;;;16.26;39.16;98310.66;5394345;26;20015;-46
2024/05/07 07:57:56;;;;;;;2.20;1.63;;;;;;;16.56;38.13;98324.97;5402165;26;20011;-46
2024/05/07 08:00:25;;;;;;;2.35;1.40;;;;;;;16.67;38.17;98321.16;5399644;26;20003;-46
2024/05/07 08:02:59;;;;;;;2.40;1.90;;;;;;;16.84;37.65;98320.06;5401698;26;22134;-47
2024/05/07 08:05:28;;;;;;;4.88;1.60;;;;;;;16.74;35.61;98320.09;5381468;26;19996;-46
2024/05/07 08:07:58;;;;;;;1.60;1.30;;;;;;;16.72;36.16;98322.22;5398650;26;20077;-47
2024/05/07 08:10:28;;;;;;;2.30;1.60;;;;;;;16.63;37.45;98324.66;5384171;26;19999;-47
2024/05/07 08:13:03;;;;;;;3.92;1.73;;;;;;;16.72;35.63;98330.22;5403121;26;20545;-46
2024/05/07 08:15:33;;;;;;;2.72;1.50;;;;;;;16.78;37.06;98324.59;5416322;26;20571;-46
2024/05/07 08:18:02;;;;;;;2.20;1.48;;;;;;;17.00;36.80;98328.78;5398378;26;20362;-47
2024/05/07 08:20:32;;;;;;;2.78;1.50;;;;;;;17.09;37.52;98335.16;5419445;26;20003;-47
2024/05/07 08:23:03;;;;;;;3.05;1.60;;;;;;;17.21;36.70;98332.94;5398309;26;21843;-47
2024/05/07 08:25:34;;;;;;;1.40;1.30;;;;;;;17.19;36.91;98326.28;5399429;26;20800;-47
2024/05/07 08:28:07;;;;;;;2.05;1.60;;;;;;;16.91;36.56;98327.78;5379936;26;20008;-46
2024/05/07 08:30:37;;;;;;;1.77;1.67;;;;;;;16.90;37.45;98326.19;5397516;26;20734;-47
2024/05/07 08:33:07;;;;;;;1.88;1.60;;;;;;;16.76;37.18;98326.75;5393697;26;20913;-46
2024/05/07 08:35:36;;;;;;;2.63;1.58;;;;;;;16.64;37.10;98328.91;5399763;26;20553;-47
2024/05/07 08:38:06;;;;;;;1.60;1.50;;;;;;;16.67;37.51;98329.16;5400315;26;20707;-48
2024/05/07 08:40:36;;;;;;;2.28;1.58;;;;;;;16.70;37.64;98325.19;5399621;26;20436;-46
2024/05/07 08:43:08;;;;;;;1.52;1.42;;;;;;;16.78;37.68;98327.25;5399085;26;20890;-47
2024/05/07 08:45:39;;;;;;;2.10;1.05;;;;;;;16.83;37.86;98331.81;5376387;26;21094;-46
2024/05/07 08:48:10;;;;;;;1.45;1.15;;;;;;;16.83;37.82;98331.81;5397623;26;20353;-47
2024/05/07 08:50:40;;;;;;;1.80;1.60;;;;;;;16.73;37.56;98335.28;5397440;26;20439;-46
2024/05/07 08:53:10;;;;;;;1.65;1.27;;;;;;;16.70;37.59;98332.34;5399162;26;19999;-46
2024/05/07 08:55:43;;;;;;;3.10;1.52;;;;;;;16.79;37.61;98330.72;5398577;26;22050;-47
2024/05/07 08:58:15;;;;;;;1.65;1.52;;;;;;;16.92;37.79;98335.50;5396445;26;20738;-46
2024/05/07 09:00:46;;;;;;;1.58;1.33;;;;;;;17.12;37.71;98337.25;5386917;26;20011;-47
2024/05/07 09:03:15;;;;;;;1.70;1.38;;;;;;;17.21;37.12;98334.81;5392150;26;20014;-47
2024/05/07 09:05:46;;;;;;;3.05;1.35;;;;;;;17.51;37.21;98343.69;5413795;26;20003;-46
2024/05/07 09:08:17;;;;;;;1.25;1.20;;;;;;;17.74;36.93;98337.69;5425554;26;20496;-48
2024/05/07 09:10:48;;;;;;;1.80;1.70;;;;;;;17.87;36.43;98346.13;5289966;27;20006;-46
2024/05/07 09:13:25;;;;;;;3.35;1.75;;;;;;;17.91;36.44;98349.84;5260961;27;20408;-46
2024/05/07 09:15:55;;;;;;;2.13;1.67;;;;;;;17.82;34.75;98343.50;5278496;27;23072;-46
2024/05/07 09:18:26;;;;;;;2.58;1.90;;;;;;;17.46;35.88;98343.72;5237970;27;20978;-45
2024/05/07 09:20:56;;;;;;;1.95;1.35;;;;;;;17.45;36.42;98342.94;5278909;27;20080;-46
2024/05/07 09:23:26;;;;;;;3.72;2.22;;;;;;;17.54;35.85;98346.63;5268288;27;20011;-46
2024/05/07 09:26:06;;;;;;;4.22;1.80;;;;;;;17.73;36.22;98344.09;5262979;27;20021;-44
2024/05/07 09:28:38;;;;;;;2.35;1.80;;;;;;;17.98;35.95;98339.63;5313494;26;21677;-46
2024/05/07 09:31:08;;;;;;;2.20;1.70;;;;;;;18.04;35.24;98341.16;5407346;26;20007;-46
2024/05/07 09:33:40;;;;;;;2.85;1.90;;;;;;;17.89;35.63;98349.31;5392629;26;20037;-46
2024/05/07 09:36:13;;;;;;;3.85;2.35;;;;;;;18.03;34.19;98339.56;5423640;26;20492;-46
2024/05/07 09:38:46;;;;;;;2.28;1.80;;;;;;;18.14;35.57;98342.94;5384752;26;20740;-46
2024/05/07 09:41:26;;;;;;;6.18;2.33;;;;;;;18.26;35.00;98338.03;5400148;26;20146;-46
2024/05/07 09:44:00;;;;;;;3.83;2.08;;;;;;;18.15;35.26;98342.66;5399963;26;21870;-47
2024/05/07 09:46:37;;;;;;;1.90;1.58;;;;;;;18.22;34.67;98331.66;5382623;26;20712;-44
2024/05/07 09:49:09;;;;;;;2.40;1.63;;;;;;;18.28;35.36;98338.53;5392215;26;21635;-47
2024/05/07 09:51:40;;;;;;;6.55;2.40;;;;;;;17.84;34.34;98347.47;5388759;26;20158;-47
2024/05/07 09:54:09;;;;;;;2.63;1.80;;;;;;;17.82;35.55;98346.97;5411535;26;20761;-47
2024/05/07 09:56:40;;;;;;;2.40;1.90;;;;;;;17.89;35.49;98346.66;5410997;26;20010;-46
2024/05/07 09:59:13;;;;;;;;;;;;;;;17.88;35.20;98348.50;5403777;26;20022;-46
2024/05/07 10:01:42;;;;;;;1.65;1.55;;;;;;;17.84;35.20;98349.38;5403217;26;21270;-46
2024/05/07 10:04:12;;;;;;;1.77;1.60;;;;;;;17.84;35.29;98350.16;5425553;26;20418;-46
2024/05/07 10:06:42;;;;;;;2.17;1.90;;;;;;;17.85;35.57;98358.97;5421479;26;22687;-47
2024/05/07 10:09:20;;;;;;;2.10;1.90;;;;;;;17.77;34.80;98349.69;5401016;26;20748;-47
2024/05/07 10:11:49;;;;;;;4.50;1.90;;;;;;;17.77;35.45;98349.69;5410084;26;20670;-46
2024/05/07 10:14:22;;;;;;;2.45;2.22;;;;;;;17.69;34.74;98353.75;5428872;26;20004;-47
2024/05/07 10:16:53;;;;;;;2.78;2.55;;;;;;;17.59;35.12;98359.16;5381749;26;21950;-47
2024/05/07 10:19:23;;;;;;;2.40;1.60;;;;;;;17.54;35.42;98357.31;5400682;26;20678;-46
2024/05/07 10:21:54;;;;;;;1.90;1.80;;;;;;;17.40;35.29;98364.34;5402740;26;20534;-45
2024/05/07 10:24:24;;;;;;;1.67;1.58;;;;;;;17.36;35.36;98368.63;5380513;26;20892;-46
2024/05/07 10:27:03;;;;;;;3.22;1.95;;;;;;;17.13;36.04;98362.88;5401346;26;21619;-46
2024/05/07 10:29:39;;;;;;;1.95;1.85;;;;;;;17.06;36.05;98356.25;5400656;26;20774;-46
2024/05/07 10:32:09;;;;;;;1.50;1.40;;;;;;;17.06;36.49;98364.28;5396143;26;20012;-46
2024/05/07 10:34:40;;;;;;;2.22;2.00;;;;;;;17.03;36.45;98361.06;5372515;26;20011;-46
2024/05/07 10:37:10;;;;;;;2.55;1.98;;;;;;;17.04;36.10;98361.88;5371108;26;20027;-46
2024/05/07 10:39:41;;;;;;;2.85;2.17;;;;;;;16.97;36.39;98362.16;5394790;26;20076;-45
2024/05/07 10:42:13;;;;;;;2.08;1.35;;;;;;;16.94;36.77;98356.56;5371193;26;20346;-45
2024/05/07 10:44:47;;;;;;;1.48;1.40;;;;;;;16.93;36.25;98369.13;5376747;26;20455;-46
2024/05/07 10:47:17;;;;;;;1.40;1.27;;;;;;;16.95;36.47;98366.97;5392864;26;21573;-46
2024/05/07 10:49:55;;;;;;;2.83;1.60;;;;;;;16.87;36.08;98364.09;5401140;26;20568;-46
2024/05/07 10:52:26;;;;;;;2.55;1.95;;;;;;;16.87;36.40;98361.41;5399850;26;20701;-46
2024/05/07 10:54:56;;;;;;;2.30;1.70;;;;;;;16.96;36.63;98360.56;5400374;26;21822;-46
2024/05/07 10:57:25;;;;;;;2.00;1.83;;;;;;;16.93;36.57;98369.13;5389825;26;21228;-46
2024/05/07 10:59:58;;;;;;;1.60;1.27;;;;;;;17.01;36.49;98362.41;5388113;26;20522;-46
2024/05/07 11:02:29;;;;;;;1.75;1.65;;;;;;;17.04;36.79;98369.88;5399609;26;21657;-45
2024/05/07 11:05:00;;;;;;;1.90;1.80;;;;;;;17.06;36.97;98366.94;5398157;26;20072;-47
2024/05/07 11:07:30;;;;;;;2.22;1.77;;;;;;;16.93;36.94;98366.47;5400516;26;23027;-45
2024/05/07 11:10:00;;;;;;;2.05;1.88;;;;;;;16.82;37.33;98368.38;5397253;26;20520;-45
2024/05/07 11:12:30;;;;;;;1.83;1.73;;;;;;;16.75;37.31;98367.81;5400255;26;21794;-45
2024/05/07 11:15:02;;;;;;;3.17;2.50;;;;;;;16.62;37.55;98371.06;5292223;26;20006;-45
2024/05/07 11:17:33;;;;;;;3.55;2.38;;;;;;;16.63;37.55;98376.13;5323743;26;22045;-46
2024/05/07 11:20:09;;;;;;;2.30;2.10;;;;;;;16.58;37.73;98370.81;5327076;26;21189;-45
2024/05/07 11:22:45;;;;;;;4.20;2.13;;;;;;;16.56;37.56;98374.81;5307974;26;21732;-46
2024/05/07 11:25:15;;;;;;;2.25;2.05;;;;;;;16.61;37.56;98372.94;5327486;26;20415;-45
2024/05/07 11:27:45;;;;;;;3.22;2.22;;;;;;;16.65;37.61;98371.31;5326859;26;20025;-46
2024/05/07 11:30:24;;;;;;;2.20;2.00;;;;;;;16.66;37.93;98369.44;5326896;26;20634;-45
2024/05/07 11:32:57;;;;;;;2.97;2.78;;;;;;;16.60;38.03;98368.66;5324316;26;21868;-46
2024/05/07 11:35:27;;;;;;;2.72;2.53;;;;;;;16.58;38.04;98373.47;5403302;26;20000;-46
2024/05/07 11:37:56;;;;;;;2.45;2.00;;;;;;;16.61;38.31;98372.94;5400811;26;20018;-46
2024/05/07 11:40:26;;;;;;;2.45;2.25;;;;;;;16.59;38.25;98367.06;5402282;26;20073;-45
2024/05/07 11:42:57;;;;;;;2.03;1.83;;;;;;;16.67;37.86;98366.50;5400703;26;20685;-45
2024/05/07 11:45:31;;;;;;;2.13;1.98;;;;;;;16.71;38.01;98374.78;5401460;26;20487;-45
2024/05/07 11:48:02;;;;;;;2.55;2.33;;;;;;;16.64;37.37;98371.59;5382163;26;20009;-46
2024/05/07 11:50:35;;;;;;;2.30;2.10;;;;;;;16.64;37.53;98377.72;5400171;26;20384;-46